Time;durP1;ratioP1;P1;durP2;ratioP2;P2;SDS_P1;SDS_P2;PMS_P1;PMS_P2;Temp;Humidity;BMP_temperature;BMP_pressure;BME280_temperature;BME280_humidity;BME280_pressure;Samples;Min_cycle;Max_cycle;Signal;HPM_P1;HPM_P2
2021/07/03 00:02:13;;;;;;;10.90;8.40;;;;;;;;;;5088585;28;20031;-68
2021/07/03 00:04:38;;;;;;;10.75;8.18;;;;;;;;;;5091805;28;20051;-69
2021/07/03 00:07:04;;;;;;;11.77;8.25;;;;;;;;;;5090040;28;20028;-68
2021/07/03 00:09:29;;;;;;;15.60;8.68;;;;;;;;;;5089353;28;20052;-68
2021/07/03 00:11:59;;;;;;;12.20;8.73;;;;;;;;;;5093007;28;20019;-68
2021/07/03 00:14:25;;;;;;;11.40;9.10;;;;;;;;;;5093635;28;20028;-68
2021/07/03 00:16:51;;;;;;;12.25;8.75;;;;;;;;;;5074479;28;20150;-68
2021/07/03 00:19:17;;;;;;;16.00;9.70;;;;;;;;;;5073332;28;20397;-67
2021/07/03 00:21:42;;;;;;;13.20;9.48;;;;;;;;;;5094911;28;20062;-68
2021/07/03 00:24:08;;;;;;;11.38;8.57;;;;;;;;;;5100960;28;20015;-68
2021/07/03 00:26:33;;;;;;;11.55;8.60;;;;;;;;;;5103648;28;20022;-68
2021/07/03 00:28:58;;;;;;;15.70;8.85;;;;;;;;;;5093238;28;20107;-68
2021/07/03 00:31:24;;;;;;;10.55;8.25;;;;;;;;;;5093390;28;20115;-68
2021/07/03 00:33:49;;;;;;;11.20;8.45;;;;;;;;;;5093176;28;20024;-68
2021/07/03 00:36:14;;;;;;;12.98;9.40;;;;;;;;;;5088934;28;20028;-68
2021/07/03 00:38:40;;;;;;;11.38;8.15;;;;;;;;;;5078154;28;20067;-67
2021/07/03 00:41:05;;;;;;;10.85;7.93;;;;;;;;;;5080698;28;20383;-67
2021/07/03 00:43:31;;;;;;;14.23;9.30;;;;;;;;;;5093128;28;20035;-68
2021/07/03 00:45:57;;;;;;;12.15;8.75;;;;;;;;;;5091053;28;20469;-68
2021/07/03 00:48:22;;;;;;;13.18;8.48;;;;;;;;;;5082564;28;20024;-68
2021/07/03 00:50:47;;;;;;;13.23;9.02;;;;;;;;;;5075068;28;20037;-68
2021/07/03 00:53:14;;;;;;;11.70;8.73;;;;;;;;;;5080427;28;20068;-68
2021/07/03 00:55:40;;;;;;;16.45;8.65;;;;;;;;;;5079704;28;20034;-68
2021/07/03 00:58:05;;;;;;;12.52;9.15;;;;;;;;;;5082867;28;20473;-67
2021/07/03 01:00:30;;;;;;;16.30;8.65;;;;;;;;;;5088521;28;20357;-68
2021/07/03 01:02:56;;;;;;;13.35;9.18;;;;;;;;;;5091982;28;20027;-68
2021/07/03 01:05:21;;;;;;;13.80;9.20;;;;;;;;;;5088841;28;20131;-67
2021/07/03 01:07:46;;;;;;;14.00;9.18;;;;;;;;;;5092830;28;20043;-68
2021/07/03 01:10:23;;;;;;;13.73;9.43;;;;;;;;;;5082347;28;20070;-68
2021/07/03 01:12:48;;;;;;;15.65;9.73;;;;;;;;;;5090546;28;20491;-68
2021/07/03 01:15:14;;;;;;;17.08;10.43;;;;;;;;;;5094767;28;20016;-68
2021/07/03 01:17:39;;;;;;;18.88;11.00;;;;;;;;;;5095848;28;20137;-68
2021/07/03 01:20:05;;;;;;;16.92;10.43;;;;;;;;;;5089042;28;20024;-68
2021/07/03 01:22:30;;;;;;;18.40;10.70;;;;;;;;;;5087250;28;20035;-68
2021/07/03 01:24:55;;;;;;;16.83;10.80;;;;;;;;;;5080101;28;20024;-69
2021/07/03 01:27:21;;;;;;;14.85;10.55;;;;;;;;;;5090887;28;20526;-68
2021/07/03 01:29:46;;;;;;;21.13;10.93;;;;;;;;;;5076476;28;20491;-68
2021/07/03 01:32:11;;;;;;;22.65;11.00;;;;;;;;;;5079015;28;20107;-68
2021/07/03 01:34:37;;;;;;;17.55;10.32;;;;;;;;;;5096333;28;20036;-68
2021/07/03 01:37:03;;;;;;;22.10;11.02;;;;;;;;;;5087291;28;20043;-68
2021/07/03 01:39:28;;;;;;;16.48;10.10;;;;;;;;;;5093413;28;20077;-68
2021/07/03 01:41:53;;;;;;;20.15;10.95;;;;;;;;;;5094447;28;20412;-68
2021/07/03 01:44:27;;;;;;;16.45;10.98;;;;;;;;;;5084866;28;20067;-68
2021/07/03 01:46:53;;;;;;;18.02;11.65;;;;;;;;;;5077012;28;20452;-69
2021/07/03 01:49:18;;;;;;;25.30;11.52;;;;;;;;;;5077147;28;20060;-69
2021/07/03 01:51:44;;;;;;;18.88;11.57;;;;;;;;;;5077013;28;20060;-68
2021/07/03 01:54:09;;;;;;;23.48;12.65;;;;;;;;;;5079729;28;20028;-67
2021/07/03 01:56:37;;;;;;;27.80;12.02;;;;;;;;;;5084258;28;20031;-68
2021/07/03 01:59:02;;;;;;;22.77;12.77;;;;;;;;;;5095792;28;20024;-68
2021/07/03 02:01:27;;;;;;;28.98;12.65;;;;;;;;;;5094095;28;20448;-68
2021/07/03 02:03:52;;;;;;;29.67;13.50;;;;;;;;;;5075715;28;20052;-68
2021/07/03 02:06:18;;;;;;;25.17;12.40;;;;;;;;;;5092849;28;20047;-68
2021/07/03 02:08:43;;;;;;;22.25;13.82;;;;;;;;;;5088510;28;20016;-67
2021/07/03 02:11:08;;;;;;;24.38;13.20;;;;;;;;;;5092232;28;20028;-68
2021/07/03 02:13:34;;;;;;;25.50;13.60;;;;;;;;;;5087323;28;20039;-67
2021/07/03 02:15:59;;;;;;;25.70;14.15;;;;;;;;;;5090223;28;20032;-68
2021/07/03 02:18:24;;;;;;;30.60;13.65;;;;;;;;;;5087707;28;20044;-67
2021/07/03 02:20:50;;;;;;;30.45;14.10;;;;;;;;;;5075484;28;20039;-67
2021/07/03 02:23:15;;;;;;;29.30;13.57;;;;;;;;;;5093972;28;20031;-68
2021/07/03 02:25:41;;;;;;;32.35;14.23;;;;;;;;;;5080933;28;20024;-68
2021/07/03 02:28:06;;;;;;;29.80;14.13;;;;;;;;;;5092011;28;20476;-68
2021/07/03 02:30:31;;;;;;;34.40;13.45;;;;;;;;;;5083110;28;20020;-68
2021/07/03 02:32:58;;;;;;;23.30;13.75;;;;;;;;;;5078000;28;20112;-66
2021/07/03 02:35:23;;;;;;;24.58;13.52;;;;;;;;;;5095336;28;20078;-68
2021/07/03 02:37:49;;;;;;;21.75;12.68;;;;;;;;;;5079605;28;20032;-68
2021/07/03 02:40:15;;;;;;;35.30;15.15;;;;;;;;;;5088545;28;20020;-68
2021/07/03 02:42:40;;;;;;;32.25;15.40;;;;;;;;;;5094912;28;20032;-67
2021/07/03 02:45:06;;;;;;;28.92;15.55;;;;;;;;;;5079345;28;20028;-68
2021/07/03 02:47:32;;;;;;;23.92;15.02;;;;;;;;;;5093053;28;20020;-69
2021/07/03 02:49:57;;;;;;;24.05;14.18;;;;;;;;;;5092352;28;20030;-68
2021/07/03 02:52:22;;;;;;;29.27;14.82;;;;;;;;;;5090781;28;20065;-68
2021/07/03 02:54:49;;;;;;;25.88;15.18;;;;;;;;;;5079813;28;20502;-68
2021/07/03 02:57:14;;;;;;;25.40;14.50;;;;;;;;;;5094820;28;20385;-69
2021/07/03 02:59:40;;;;;;;26.77;15.23;;;;;;;;;;5079377;28;20074;-68
2021/07/03 03:02:05;;;;;;;32.00;16.00;;;;;;;;;;5088809;28;20032;-68
2021/07/03 03:04:30;;;;;;;26.25;15.38;;;;;;;;;;5094824;28;20135;-67
2021/07/03 03:06:56;;;;;;;30.02;15.38;;;;;;;;;;5080187;28;20502;-68
2021/07/03 03:09:21;;;;;;;27.85;15.35;;;;;;;;;;5078226;28;20025;-67
2021/07/03 03:11:46;;;;;;;29.63;15.57;;;;;;;;;;5077992;28;20460;-68
2021/07/03 03:14:11;;;;;;;29.52;14.95;;;;;;;;;;5092811;28;20020;-68
2021/07/03 03:16:37;;;;;;;24.27;14.55;;;;;;;;;;5094621;28;20024;-67
2021/07/03 03:19:02;;;;;;;29.38;15.20;;;;;;;;;;5077283;28;20032;-68
2021/07/03 03:21:28;;;;;;;23.52;14.45;;;;;;;;;;5074269;28;20024;-68
2021/07/03 03:23:54;;;;;;;27.55;14.48;;;;;;;;;;5076952;28;20039;-68
2021/07/03 03:26:19;;;;;;;24.95;14.18;;;;;;;;;;5090962;28;20028;-68
2021/07/03 03:28:45;;;;;;;27.85;16.00;;;;;;;;;;5091161;28;20027;-68
2021/07/03 03:31:10;;;;;;;24.73;14.50;;;;;;;;;;5094320;28;20031;-68
2021/07/03 03:33:35;;;;;;;27.67;14.88;;;;;;;;;;5076213;28;20032;-68
2021/07/03 03:36:00;;;;;;;29.85;15.25;;;;;;;;;;5080743;28;20034;-68
2021/07/03 03:38:26;;;;;;;29.63;14.55;;;;;;;;;;5092598;28;20069;-67
2021/07/03 03:40:51;;;;;;;25.77;14.63;;;;;;;;;;5082122;28;20410;-67
2021/07/03 03:43:16;;;;;;;27.98;15.70;;;;;;;;;;5080734;28;20025;-68
2021/07/03 03:45:42;;;;;;;35.08;17.67;;;;;;;;;;5094010;28;20031;-68
2021/07/03 03:48:07;;;;;;;39.17;18.88;;;;;;;;;;5088444;28;20508;-68
2021/07/03 03:50:33;;;;;;;38.22;18.67;;;;;;;;;;5073881;28;20055;-68
2021/07/03 03:52:58;;;;;;;37.22;19.88;;;;;;;;;;5079009;28;20067;-69
2021/07/03 03:55:24;;;;;;;50.17;21.80;;;;;;;;;;5092279;28;20051;-68
2021/07/03 03:57:49;;;;;;;62.35;23.48;;;;;;;;;;5082255;28;20123;-68
2021/07/03 04:00:17;;;;;;;60.20;24.00;;;;;;;;;;5079132;28;20039;-68
2021/07/03 04:02:42;;;;;;;58.92;23.92;;;;;;;;;;5079295;28;20483;-68
2021/07/03 04:05:08;;;;;;;50.53;22.05;;;;;;;;;;5084816;28;20052;-67
2021/07/03 04:07:33;;;;;;;49.63;24.05;;;;;;;;;;5091857;28;20077;-68
2021/07/03 04:09:59;;;;;;;46.05;21.73;;;;;;;;;;5084594;28;20445;-69
2021/07/03 04:12:24;;;;;;;53.13;23.13;;;;;;;;;;5080445;28;20078;-68
2021/07/03 04:14:50;;;;;;;43.80;20.92;;;;;;;;;;5093673;28;20035;-69
2021/07/03 04:17:15;;;;;;;53.17;21.45;;;;;;;;;;5084489;28;20040;-67
2021/07/03 04:19:40;;;;;;;51.78;22.58;;;;;;;;;;5073501;28;20025;-67
2021/07/03 04:22:06;;;;;;;42.97;22.20;;;;;;;;;;5085741;28;20048;-69
2021/07/03 04:24:31;;;;;;;51.22;23.52;;;;;;;;;;5080067;28;20418;-68
2021/07/03 04:26:56;;;;;;;42.85;22.45;;;;;;;;;;5073855;28;20350;-69
2021/07/03 04:29:22;;;;;;;42.63;22.08;;;;;;;;;;5074129;28;20028;-68
2021/07/03 04:31:47;;;;;;;42.97;22.20;;;;;;;;;;5073560;28;20044;-69
2021/07/03 04:34:12;;;;;;;43.15;20.98;;;;;;;;;;5089196;28;20051;-69
2021/07/03 04:36:38;;;;;;;39.53;20.67;;;;;;;;;;5093197;28;20111;-69
2021/07/03 04:39:03;;;;;;;38.50;20.77;;;;;;;;;;5081970;28;20038;-69
2021/07/03 04:41:29;;;;;;;46.58;21.33;;;;;;;;;;5075441;28;20479;-69
2021/07/03 04:43:54;;;;;;;46.28;20.73;;;;;;;;;;5072889;28;20393;-69
2021/07/03 04:46:19;;;;;;;49.72;21.17;;;;;;;;;;5078765;28;20077;-69
2021/07/03 04:48:45;;;;;;;54.97;23.05;;;;;;;;;;5087585;28;20418;-68
2021/07/03 04:51:10;;;;;;;68.50;24.35;;;;;;;;;;5081882;28;20037;-68
2021/07/03 04:53:36;;;;;;;57.60;22.17;;;;;;;;;;5086213;28;20110;-68
2021/07/03 04:56:01;;;;;;;53.83;22.85;;;;;;;;;;5095678;28;20020;-69
2021/07/03 04:58:27;;;;;;;54.28;23.05;;;;;;;;;;5096829;28;20434;-69
2021/07/03 05:00:52;;;;;;;48.83;22.10;;;;;;;;;;5091275;28;20024;-69
2021/07/03 05:03:17;;;;;;;44.50;22.02;;;;;;;;;;5091155;28;20017;-68
2021/07/03 05:05:42;;;;;;;58.45;23.42;;;;;;;;;;5076169;28;20473;-68
2021/07/03 05:08:08;;;;;;;49.10;23.65;;;;;;;;;;5077942;28;20024;-69
2021/07/03 05:10:33;;;;;;;50.67;23.15;;;;;;;;;;5087417;28;20145;-69
2021/07/03 05:12:58;;;;;;;53.58;23.58;;;;;;;;;;5096959;28;20024;-69
2021/07/03 05:15:24;;;;;;;40.20;21.45;;;;;;;;;;5079363;28;20405;-69
2021/07/03 05:17:49;;;;;;;56.28;23.40;;;;;;;;;;5095155;28;20113;-69
2021/07/03 05:20:17;;;;;;;40.55;21.33;;;;;;;;;;5082506;28;20047;-68
2021/07/03 05:22:42;;;;;;;40.28;21.33;;;;;;;;;;5076426;28;20036;-68
2021/07/03 05:25:07;;;;;;;47.58;20.90;;;;;;;;;;5081471;28;20369;-69
2021/07/03 05:27:33;;;;;;;55.53;22.90;;;;;;;;;;5077415;28;20047;-69
2021/07/03 05:29:58;;;;;;;50.35;22.10;;;;;;;;;;5093551;28;20046;-68
2021/07/03 05:32:23;;;;;;;49.40;22.58;;;;;;;;;;5086528;28;20020;-69
2021/07/03 05:34:49;;;;;;;47.00;22.48;;;;;;;;;;5078020;28;20020;-69
2021/07/03 05:37:14;;;;;;;47.67;21.55;;;;;;;;;;5086764;28;20044;-68
2021/07/03 05:39:39;;;;;;;48.33;22.65;;;;;;;;;;5087146;28;20030;-68
2021/07/03 05:42:04;;;;;;;44.17;20.17;;;;;;;;;;5081267;28;20017;-68
2021/07/03 05:44:30;;;;;;;45.00;22.38;;;;;;;;;;5096277;28;20469;-69
2021/07/03 05:46:55;;;;;;;51.13;21.58;;;;;;;;;;5080542;28;20024;-69
2021/07/03 05:49:20;;;;;;;44.25;20.20;;;;;;;;;;5080502;28;20024;-68
2021/07/03 05:51:46;;;;;;;58.78;22.85;;;;;;;;;;5096362;28;20028;-68
2021/07/03 05:54:11;;;;;;;44.08;20.35;;;;;;;;;;5093029;28;20027;-67
2021/07/03 05:56:37;;;;;;;44.50;20.73;;;;;;;;;;5076648;28;20033;-67
2021/07/03 05:59:02;;;;;;;47.80;21.00;;;;;;;;;;5076663;28;20029;-69
2021/07/03 06:01:27;;;;;;;54.70;23.20;;;;;;;;;;5086572;28;20498;-69
2021/07/03 06:03:52;;;;;;;47.17;20.95;;;;;;;;;;5086340;28;20080;-69
2021/07/03 06:06:18;;;;;;;44.00;20.00;;;;;;;;;;5085043;28;20048;-69
2021/07/03 06:08:43;;;;;;;52.13;20.17;;;;;;;;;;5095895;28;20346;-69
2021/07/03 06:11:10;;;;;;;56.20;22.65;;;;;;;;;;5093332;28;20430;-69
2021/07/03 06:13:35;;;;;;;66.20;24.38;;;;;;;;;;5090934;28;20028;-69
2021/07/03 06:16:01;;;;;;;86.15;28.52;;;;;;;;;;5095223;28;20075;-68
2021/07/03 06:18:26;;;;;;;81.63;26.63;;;;;;;;;;5074556;28;20047;-68
2021/07/03 06:20:52;;;;;;;59.58;26.13;;;;;;;;;;5085777;28;20024;-68
2021/07/03 06:23:17;;;;;;;83.97;27.75;;;;;;;;;;5093329;28;20032;-68
2021/07/03 06:25:42;;;;;;;104.18;31.38;;;;;;;;;;5087900;28;20020;-69
2021/07/03 06:28:08;;;;;;;73.75;28.05;;;;;;;;;;5102746;28;20031;-69
2021/07/03 06:30:33;;;;;;;83.93;28.58;;;;;;;;;;5099155;27;20016;-69
2021/07/03 06:32:58;;;;;;;75.00;27.90;;;;;;;;;;5102610;28;20031;-68
2021/07/03 06:35:23;;;;;;;113.90;31.83;;;;;;;;;;5102064;28;20023;-68
2021/07/03 06:37:49;;;;;;;109.47;32.25;;;;;;;;;;5113847;28;20035;-68
2021/07/03 06:40:14;;;;;;;100.07;30.88;;;;;;;;;;5099710;28;20028;-68
2021/07/03 06:42:39;;;;;;;88.82;30.02;;;;;;;;;;5103449;28;20164;-67
2021/07/03 06:45:05;;;;;;;88.60;28.98;;;;;;;;;;5100836;28;20027;-68
2021/07/03 06:47:30;;;;;;;81.90;28.35;;;;;;;;;;5102341;28;20055;-68
2021/07/03 06:49:55;;;;;;;82.80;28.40;;;;;;;;;;5104046;28;20035;-68
2021/07/03 06:52:21;;;;;;;64.80;26.15;;;;;;;;;;5101330;28;20047;-68
2021/07/03 06:54:46;;;;;;;90.18;31.52;;;;;;;;;;5101028;28;20043;-69
2021/07/03 06:57:12;;;;;;;119.03;32.88;;;;;;;;;;5103872;28;20035;-68
2021/07/03 06:59:38;;;;;;;111.70;33.15;;;;;;;;;;5095388;28;20016;-69
2021/07/03 07:02:03;;;;;;;113.47;32.65;;;;;;;;;;5100687;28;20445;-68
2021/07/03 07:04:28;;;;;;;114.18;33.58;;;;;;;;;;5103625;28;20035;-68
2021/07/03 07:06:55;;;;;;;101.78;31.52;;;;;;;;;;5101100;27;20361;-68
2021/07/03 07:09:20;;;;;;;88.45;28.70;;;;;;;;;;5106627;28;20361;-68
2021/07/03 07:11:46;;;;;;;86.75;28.92;;;;;;;;;;5096742;28;20107;-69
2021/07/03 07:14:13;;;;;;;81.15;28.85;;;;;;;;;;5101038;28;20024;-69
2021/07/03 07:16:39;;;;;;;85.90;29.02;;;;;;;;;;5079470;28;20027;-69
2021/07/03 07:19:04;;;;;;;90.57;31.67;;;;;;;;;;5094576;28;20032;-68
2021/07/03 07:21:29;;;;;;;106.10;31.38;;;;;;;;;;5091698;28;20472;-68
2021/07/03 07:23:55;;;;;;;80.70;28.52;;;;;;;;;;5088772;28;20025;-69
2021/07/03 07:26:20;;;;;;;107.43;32.08;;;;;;;;;;5091891;28;20380;-68
2021/07/03 07:28:46;;;;;;;86.10;27.95;;;;;;;;;;5088126;28;20031;-68
2021/07/03 07:31:11;;;;;;;69.43;27.13;;;;;;;;;;5089895;28;20078;-67
2021/07/03 07:33:36;;;;;;;66.93;26.02;;;;;;;;;;5091726;28;20044;-68
2021/07/03 07:36:02;;;;;;;72.63;27.65;;;;;;;;;;5089462;28;20020;-69
2021/07/03 07:38:27;;;;;;;52.33;23.15;;;;;;;;;;5091862;28;20461;-69
2021/07/03 07:40:53;;;;;;;60.90;25.15;;;;;;;;;;5091510;28;20032;-69
2021/07/03 07:43:18;;;;;;;48.33;22.98;;;;;;;;;;5090098;28;20027;-69
2021/07/03 07:45:43;;;;;;;54.47;24.00;;;;;;;;;;5086113;28;20028;-67
2021/07/03 07:48:08;;;;;;;45.08;20.60;;;;;;;;;;5092404;28;20460;-68
2021/07/03 07:50:34;;;;;;;37.17;19.30;;;;;;;;;;5093669;28;20024;-69
2021/07/03 07:53:00;;;;;;;36.05;19.67;;;;;;;;;;5091004;28;20039;-68
2021/07/03 07:55:25;;;;;;;37.85;19.17;;;;;;;;;;5079483;28;20032;-68
2021/07/03 07:57:50;;;;;;;39.03;19.85;;;;;;;;;;5080170;28;20024;-69
2021/07/03 08:00:16;;;;;;;40.00;19.52;;;;;;;;;;5074985;28;20457;-68
2021/07/03 08:02:41;;;;;;;27.92;16.05;;;;;;;;;;5093536;28;20036;-69
2021/07/03 08:05:07;;;;;;;29.55;16.83;;;;;;;;;;5091919;28;20040;-68
2021/07/03 08:07:32;;;;;;;26.70;14.45;;;;;;;;;;5080974;28;20047;-68
2021/07/03 08:09:57;;;;;;;23.75;14.52;;;;;;;;;;5091889;28;20463;-69
2021/07/03 08:12:23;;;;;;;24.85;14.52;;;;;;;;;;5088316;28;20016;-69
2021/07/03 08:14:48;;;;;;;19.75;13.25;;;;;;;;;;5091324;28;20497;-67
2021/07/03 08:17:13;;;;;;;20.23;12.70;;;;;;;;;;5073245;28;20039;-69
2021/07/03 08:19:39;;;;;;;20.35;12.65;;;;;;;;;;5075166;28;20020;-68
2021/07/03 08:22:04;;;;;;;18.70;12.38;;;;;;;;;;5081774;28;20412;-68
2021/07/03 08:24:29;;;;;;;19.17;12.43;;;;;;;;;;5073293;28;20507;-67
2021/07/03 08:26:55;;;;;;;17.15;12.35;;;;;;;;;;5086779;28;20026;-68
2021/07/03 08:29:20;;;;;;;22.92;13.23;;;;;;;;;;5090026;28;20081;-68
2021/07/03 08:31:46;;;;;;;17.67;12.02;;;;;;;;;;5092178;28;20085;-69
2021/07/03 08:34:11;;;;;;;17.67;11.70;;;;;;;;;;5084868;28;20025;-68
2021/07/03 08:36:36;;;;;;;17.73;11.75;;;;;;;;;;5087562;28;20016;-69
2021/07/03 08:39:02;;;;;;;20.88;13.93;;;;;;;;;;5092338;28;20501;-68
2021/07/03 08:41:28;;;;;;;18.88;12.48;;;;;;;;;;5092741;28;20017;-68
2021/07/03 08:43:53;;;;;;;14.57;11.20;;;;;;;;;;5074856;28;20040;-68
2021/07/03 08:46:19;;;;;;;16.20;11.30;;;;;;;;;;5088901;28;20028;-69
2021/07/03 08:48:46;;;;;;;18.27;11.27;;;;;;;;;;5092962;28;20027;-69
2021/07/03 08:51:11;;;;;;;16.38;11.32;;;;;;;;;;5091647;28;20024;-69
2021/07/03 08:53:37;;;;;;;14.15;10.57;;;;;;;;;;5078441;28;20039;-68
2021/07/03 08:56:02;;;;;;;21.15;12.23;;;;;;;;;;5073890;28;20021;-69
2021/07/03 08:58:27;;;;;;;19.58;12.95;;;;;;;;;;5076348;28;20028;-69
2021/07/03 09:00:53;;;;;;;16.42;11.27;;;;;;;;;;5084899;28;20452;-69
2021/07/03 09:03:19;;;;;;;19.80;11.45;;;;;;;;;;5089398;28;20024;-69
2021/07/03 09:05:55;;;;;;;17.77;10.75;;;;;;;;;;5081662;28;20047;-69
2021/07/03 09:08:21;;;;;;;16.17;11.40;;;;;;;;;;5092981;28;20031;-69
2021/07/03 09:10:47;;;;;;;15.52;11.18;;;;;;;;;;5076257;28;20021;-69
2021/07/03 09:13:12;;;;;;;12.85;9.55;;;;;;;;;;5072834;28;20029;-69
2021/07/03 09:15:39;;;;;;;14.13;9.65;;;;;;;;;;5072954;28;20396;-70
2021/07/03 09:18:06;;;;;;;13.60;8.20;;;;;;;;;;5072873;28;20115;-70
2021/07/03 09:20:31;;;;;;;12.05;8.77;;;;;;;;;;5072794;28;20338;-70
2021/07/03 09:23:05;;;;;;;13.82;10.13;;;;;;;;;;5089444;28;20035;-69
2021/07/03 09:25:31;;;;;;;11.65;8.75;;;;;;;;;;5092739;28;20055;-69
2021/07/03 09:28:02;;;;;;;13.70;9.45;;;;;;;;;;5092980;28;20063;-69
2021/07/03 09:30:28;;;;;;;11.43;8.38;;;;;;;;;;5092450;28;20415;-70
2021/07/03 09:32:54;;;;;;;12.00;7.72;;;;;;;;;;5092902;28;20059;-70
2021/07/03 09:35:20;;;;;;;11.30;7.97;;;;;;;;;;5093978;28;20379;-70
2021/07/03 09:37:46;;;;;;;10.30;8.30;;;;;;;;;;5096706;28;20028;-68
2021/07/03 09:40:11;;;;;;;12.30;8.73;;;;;;;;;;5096537;28;20532;-67
2021/07/03 09:42:37;;;;;;;10.85;8.77;;;;;;;;;;5096503;28;20035;-68
2021/07/03 09:45:04;;;;;;;12.80;8.52;;;;;;;;;;5096472;28;20030;-68
2021/07/03 09:47:29;;;;;;;12.77;8.93;;;;;;;;;;5094048;28;20047;-68
2021/07/03 09:50:04;;;;;;;12.20;8.27;;;;;;;;;;5084842;28;20032;-67
2021/07/03 09:52:30;;;;;;;14.32;9.23;;;;;;;;;;5086462;28;20021;-67
2021/07/03 09:54:56;;;;;;;12.43;9.63;;;;;;;;;;5091347;28;20499;-67
2021/07/03 09:57:23;;;;;;;15.20;10.73;;;;;;;;;;5094375;28;20109;-67
2021/07/03 09:59:49;;;;;;;15.20;10.20;;;;;;;;;;5075883;28;20020;-67
2021/07/03 10:02:15;;;;;;;14.80;10.55;;;;;;;;;;5076042;28;20355;-67
2021/07/03 10:04:40;;;;;;;13.85;10.25;;;;;;;;;;5075736;28;20429;-67
2021/07/03 10:07:08;;;;;;;14.55;10.32;;;;;;;;;;5083171;28;20392;-67
2021/07/03 10:09:41;;;;;;;11.48;9.63;;;;;;;;;;5087963;28;20070;-67
2021/07/03 10:12:08;;;;;;;11.82;9.00;;;;;;;;;;5085574;28;20048;-67
2021/07/03 10:14:38;;;;;;;16.83;10.63;;;;;;;;;;5090453;28;20484;-68
2021/07/03 10:17:03;;;;;;;12.43;9.88;;;;;;;;;;5095731;28;20447;-67
2021/07/03 10:19:33;;;;;;;14.13;10.77;;;;;;;;;;5095543;28;20060;-67
2021/07/03 10:22:35;;;;;;;14.98;10.07;;;;;;;;;;5095479;28;20034;-67
2021/07/03 10:25:09;;;;;;;16.88;11.18;;;;;;;;;;5072371;28;20028;-67
2021/07/03 10:27:35;;;;;;;13.37;9.83;;;;;;;;;;5091820;28;20032;-68
2021/07/03 10:30:01;;;;;;;14.93;9.60;;;;;;;;;;5095526;28;20046;-67
2021/07/03 10:32:30;;;;;;;12.05;9.38;;;;;;;;;;5094449;28;20030;-68
2021/07/03 10:35:06;;;;;;;12.35;9.77;;;;;;;;;;5083998;28;20038;-68
2021/07/03 10:37:32;;;;;;;14.52;9.20;;;;;;;;;;5093257;28;20428;-69
2021/07/03 10:39:58;;;;;;;15.02;9.45;;;;;;;;;;5095154;28;20066;-69
2021/07/03 10:42:27;;;;;;;12.93;8.95;;;;;;;;;;5095391;28;20418;-69
2021/07/03 10:44:53;;;;;;;12.63;9.07;;;;;;;;;;5088741;28;20024;-69
2021/07/03 10:47:18;;;;;;;11.93;8.90;;;;;;;;;;5094079;28;20031;-69
2021/07/03 10:49:43;;;;;;;15.77;9.18;;;;;;;;;;5095056;28;20012;-70
2021/07/03 10:52:13;;;;;;;11.05;8.20;;;;;;;;;;5095301;28;20023;-69
2021/07/03 10:54:39;;;;;;;12.90;8.52;;;;;;;;;;5093794;28;20424;-70
2021/07/03 10:57:04;;;;;;;12.43;7.93;;;;;;;;;;5095172;28;20109;-70
2021/07/03 10:59:33;;;;;;;12.45;7.53;;;;;;;;;;5094504;28;20158;-69
2021/07/03 11:02:12;;;;;;;12.35;7.50;;;;;;;;;;5090314;28;20035;-69
2021/07/03 11:04:45;;;;;;;11.65;7.00;;;;;;;;;;5092818;28;20058;-69
2021/07/03 11:07:14;;;;;;;8.45;6.18;;;;;;;;;;5089165;28;20028;-70
2021/07/03 11:09:39;;;;;;;10.77;6.50;;;;;;;;;;5094043;28;20099;-69
2021/07/03 11:12:13;;;;;;;8.73;5.90;;;;;;;;;;5086966;28;20115;-70
2021/07/03 11:14:39;;;;;;;8.73;6.13;;;;;;;;;;5075531;28;20028;-69
2021/07/03 11:17:04;;;;;;;8.82;6.10;;;;;;;;;;5087709;28;20038;-69
2021/07/03 11:19:30;;;;;;;9.73;7.00;;;;;;;;;;5087625;28;20020;-69
2021/07/03 11:22:09;;;;;;;7.90;6.07;;;;;;;;;;5087545;28;20016;-70
2021/07/03 11:24:48;;;;;;;10.43;6.78;;;;;;;;;;5079721;28;20024;-68
2021/07/03 11:27:32;;;;;;;9.40;6.72;;;;;;;;;;5088882;28;20020;-69
2021/07/03 11:29:58;;;;;;;7.45;5.47;;;;;;;;;;5087924;28;20099;-69
2021/07/03 11:32:23;;;;;;;6.80;4.93;;;;;;;;;;5090073;28;20035;-69
2021/07/03 11:34:50;;;;;;;6.63;5.22;;;;;;;;;;5091998;28;20103;-69
2021/07/03 11:37:23;;;;;;;6.45;4.32;;;;;;;;;;5089430;28;20040;-69
2021/07/03 11:39:52;;;;;;;13.38;4.70;;;;;;;;;;5089219;28;20036;-69
2021/07/03 11:42:24;;;;;;;6.25;4.07;;;;;;;;;;5087085;28;20032;-68
2021/07/03 11:44:53;;;;;;;7.78;3.83;;;;;;;;;;5085933;28;20034;-70
2021/07/03 11:47:18;;;;;;;5.55;3.85;;;;;;;;;;5091926;28;20040;-69
2021/07/03 11:49:43;;;;;;;4.70;3.88;;;;;;;;;;5092783;28;20031;-70
2021/07/03 11:52:09;;;;;;;6.40;3.88;;;;;;;;;;5088397;28;20379;-69
2021/07/03 11:54:34;;;;;;;6.97;3.60;;;;;;;;;;5083179;28;20463;-70
2021/07/03 11:57:00;;;;;;;6.60;3.38;;;;;;;;;;5092097;28;20031;-68
2021/07/03 11:59:26;;;;;;;4.22;2.70;;;;;;;;;;5080740;28;20036;-69
2021/07/03 12:01:51;;;;;;;4.55;3.08;;;;;;;;;;5087469;28;20509;-69
2021/07/03 12:04:17;;;;;;;5.20;2.95;;;;;;;;;;5083241;28;20492;-67
2021/07/03 12:06:42;;;;;;;3.72;2.33;;;;;;;;;;5088442;28;20464;-67
2021/07/03 12:09:11;;;;;;;6.97;1.90;;;;;;;;;;5084399;28;20039;-67
2021/07/03 12:11:38;;;;;;;4.75;1.95;;;;;;;;;;5087746;28;20029;-68
2021/07/03 12:14:11;;;;;;;2.33;1.52;;;;;;;;;;5086217;28;20464;-67
2021/07/03 12:16:36;;;;;;;2.97;1.65;;;;;;;;;;5090790;28;20028;-68
2021/07/03 12:19:02;;;;;;;4.03;1.73;;;;;;;;;;5087457;28;20389;-68
2021/07/03 12:21:30;;;;;;;2.22;1.60;;;;;;;;;;5090366;28;20061;-67
2021/07/03 12:23:56;;;;;;;2.45;1.60;;;;;;;;;;5085830;28;20024;-68
2021/07/03 12:26:24;;;;;;;2.17;1.60;;;;;;;;;;5092470;28;20128;-67
2021/07/03 12:28:56;;;;;;;2.63;1.70;;;;;;;;;;5081719;28;20028;-67
2021/07/03 12:31:25;;;;;;;1.88;1.30;;;;;;;;;;5075890;28;20024;-70
2021/07/03 12:33:59;;;;;;;2.67;1.77;;;;;;;;;;5077678;28;20028;-68
2021/07/03 12:36:24;;;;;;;2.75;1.67;;;;;;;;;;5084014;28;20032;-68
2021/07/03 12:39:00;;;;;;;3.90;2.13;;;;;;;;;;5079395;28;20036;-70
2021/07/03 12:41:25;;;;;;;2.97;1.60;;;;;;;;;;5080531;28;20020;-69
2021/07/03 12:43:53;;;;;;;2.20;1.63;;;;;;;;;;5083819;28;20801;-68
2021/07/03 12:46:28;;;;;;;2.88;1.63;;;;;;;;;;5081369;28;20021;-69
2021/07/03 12:48:53;;;;;;;4.55;1.60;;;;;;;;;;5079723;28;20031;-68
2021/07/03 12:51:18;;;;;;;2.75;1.60;;;;;;;;;;5078099;28;20036;-69
2021/07/03 12:53:45;;;;;;;2.97;1.60;;;;;;;;;;5074917;28;20028;-69
2021/07/03 12:56:10;;;;;;;4.05;1.58;;;;;;;;;;5080040;28;20131;-67
2021/07/03 12:58:36;;;;;;;1.90;1.45;;;;;;;;;;5082711;28;20468;-69
2021/07/03 13:01:02;;;;;;;3.65;1.67;;;;;;;;;;5083891;28;20020;-70
2021/07/03 13:03:28;;;;;;;5.50;1.75;;;;;;;;;;5092846;28;20388;-70
2021/07/03 13:05:58;;;;;;;3.45;1.70;;;;;;;;;;5082207;28;20049;-69
2021/07/03 13:08:23;;;;;;;3.28;2.00;;;;;;;;;;5084358;28;20024;-70
2021/07/03 13:10:49;;;;;;;5.50;2.20;;;;;;;;;;5090852;28;20032;-67
2021/07/03 13:13:14;;;;;;;5.63;2.78;;;;;;;;;;5081311;28;20499;-69
2021/07/03 13:15:39;;;;;;;4.05;2.30;;;;;;;;;;5095575;28;20022;-68
2021/07/03 13:18:05;;;;;;;6.32;1.95;;;;;;;;;;5079615;28;20043;-69
2021/07/03 13:20:30;;;;;;;4.25;2.30;;;;;;;;;;5076583;28;20534;-70
2021/07/03 13:22:56;;;;;;;4.82;2.28;;;;;;;;;;5076619;28;20012;-69
2021/07/03 13:25:21;;;;;;;5.85;2.85;;;;;;;;;;5076519;28;20029;-69
2021/07/03 13:27:47;;;;;;;7.38;2.55;;;;;;;;;;5076540;28;20594;-69
2021/07/03 13:30:13;;;;;;;4.43;2.15;;;;;;;;;;5076446;28;20017;-69
2021/07/03 13:32:38;;;;;;;5.57;2.40;;;;;;;;;;5076112;28;20024;-68
2021/07/03 13:35:04;;;;;;;4.63;2.15;;;;;;;;;;5076250;28;20040;-69
2021/07/03 13:37:29;;;;;;;5.22;2.22;;;;;;;;;;5076283;28;20031;-69
2021/07/03 13:39:54;;;;;;;4.18;2.40;;;;;;;;;;5092400;28;20032;-70
2021/07/03 13:42:22;;;;;;;8.23;2.95;;;;;;;;;;5096625;28;20472;-69
2021/07/03 13:44:48;;;;;;;3.22;1.73;;;;;;;;;;5096256;28;20024;-69
2021/07/03 13:47:13;;;;;;;4.15;2.53;;;;;;;;;;5096547;28;20487;-68
2021/07/03 13:49:39;;;;;;;5.03;3.40;;;;;;;;;;5096255;28;20031;-69
2021/07/03 13:52:04;;;;;;;5.40;3.33;;;;;;;;;;5096466;28;20746;-69
2021/07/03 13:54:29;;;;;;;4.63;2.78;;;;;;;;;;5096187;28;20032;-69
2021/07/03 13:56:57;;;;;;;6.28;3.15;;;;;;;;;;5096249;28;20036;-69
2021/07/03 13:59:22;;;;;;;10.40;6.18;;;;;;;;;;5096166;28;20024;-69
2021/07/03 14:01:48;;;;;;;12.45;5.43;;;;;;;;;;5096140;28;20028;-70
2021/07/03 14:04:13;;;;;;;4.82;2.60;;;;;;;;;;5095888;28;20468;-69
2021/07/03 14:06:38;;;;;;;5.43;2.90;;;;;;;;;;5096291;28;20070;-69
2021/07/03 14:09:04;;;;;;;5.45;2.67;;;;;;;;;;5095965;28;20123;-69
2021/07/03 14:11:29;;;;;;;6.90;3.55;;;;;;;;;;5095932;28;20032;-69
2021/07/03 14:13:55;;;;;;;7.07;3.60;;;;;;;;;;5095800;28;20467;-69
2021/07/03 14:16:20;;;;;;;8.30;3.35;;;;;;;;;;5095895;28;20020;-69
2021/07/03 14:18:46;;;;;;;14.93;6.45;;;;;;;;;;5095657;28;20545;-69